Orange, California
Current Conditions -  °F | °C
As of 2:53 AM on Wednesday 26 Nov 2014 (Local Time) from KSNA Reporting Station
Clear Clear  
Wind Chill: 55°   Ceiling: Unl
Heat Index: 55°   Visibility: 10mi
Dew Point: 32°   Wind: 0mph
Humidity: 42%   Direction: NA
Pressure: 30.22"   Gusts: NA
Location:  33.79°N, 117.85°W
Report Text: KSNA 261053Z AUTO 00000KT 10SM CLR 13/00 A3022 RMK AO2 SLP232 T01280000 TSNO $
Loading
Personal Weather Stations






























Interactive Weather Map New forecast layout! Learn more

10-Day Weather Forecast

Advertisements
Track Severe Weather on mobile